Terminal Aerodrome Forecast
Issued by NWS

Home | Current Version | Previous Version | Text Only | Print | Product List | Glossary Off
Versions: 1 2 3 4 5 6 7 8 9 10 11 12 13 14 15 16 17 18 19 20 21 22

000
FTUS43 KMPX 151332 AAA
TAFAXN
TAF AMD
KAXN 151332Z 1514/1612 05004KT P6SM SCT020 OVC040
     FM151700 15006KT 2SM -SN OVC015
     FM152200 16008KT 4SM -SN OVC015
     FM160300 13006KT P6SM OVC008=

USA.gov is the U.S. government's official web portal to all federal, state and local government web resources and services.